createdAt,value
2018-10-12T00:00:58.926Z,10.38
2018-10-12T00:04:03.261Z,10.39
2018-10-12T00:07:07.693Z,10.41
2018-10-12T00:10:12.365Z,10.42
2018-10-12T00:13:16.640Z,10.43
2018-10-12T00:16:20.951Z,10.44
2018-10-12T00:19:25.204Z,10.49
2018-10-12T00:22:29.492Z,10.52
2018-10-12T00:25:33.817Z,10.55
2018-10-12T00:28:38.086Z,10.58
2018-10-12T00:31:42.430Z,10.58
2018-10-12T00:34:46.772Z,10.54
2018-10-12T00:37:51.100Z,10.52
2018-10-12T00:40:55.431Z,10.43
2018-10-12T00:43:59.729Z,10.39
2018-10-12T00:47:04.005Z,10.41
2018-10-12T00:50:08.386Z,10.43
2018-10-12T00:53:12.689Z,10.44
2018-10-12T00:56:17.010Z,10.45
2018-10-12T00:59:21.358Z,10.47
2018-10-12T01:02:25.626Z,10.48
2018-10-12T01:05:29.985Z,10.47
2018-10-12T01:08:34.307Z,10.47
2018-10-12T01:11:38.578Z,10.54
2018-10-12T01:14:43.201Z,10.58
2018-10-12T01:17:47.496Z,10.62
2018-10-12T01:20:51.779Z,10.62
2018-10-12T01:23:56.063Z,10.63
2018-10-12T01:27:00.541Z,10.64
2018-10-12T01:30:05.609Z,10.60
2018-10-12T01:33:09.912Z,10.56
2018-10-12T01:36:14.212Z,10.46
2018-10-12T01:39:18.557Z,10.38
2018-10-12T01:42:22.878Z,10.26
2018-10-12T01:45:27.146Z,10.20
2018-10-12T01:48:31.411Z,10.21
2018-10-12T01:51:35.741Z,10.27
2018-10-12T01:54:40.207Z,10.32
2018-10-12T01:57:44.594Z,10.44
2018-10-12T02:00:48.904Z,10.54
2018-10-12T02:03:53.231Z,10.57
2018-10-12T02:06:57.538Z,10.60
2018-10-12T02:10:01.980Z,10.69
2018-10-12T02:13:06.503Z,10.77
2018-10-12T02:16:10.782Z,10.79
2018-10-12T02:19:15.133Z,10.79
2018-10-12T02:22:19.414Z,10.82
2018-10-12T02:25:23.771Z,10.84
2018-10-12T02:28:28.194Z,10.88
2018-10-12T02:31:32.672Z,10.90
2018-10-12T02:34:36.978Z,10.90
2018-10-12T02:37:41.247Z,10.92
2018-10-12T02:40:45.614Z,10.97
2018-10-12T02:43:49.914Z,10.97
2018-10-12T02:46:54.221Z,10.99
2018-10-12T02:49:58.595Z,11.03
2018-10-12T02:53:02.998Z,11.05
2018-10-12T02:56:07.731Z,11.03
2018-10-12T02:59:12.035Z,10.99
2018-10-12T03:02:16.371Z,10.94
2018-10-12T03:05:20.666Z,10.85
2018-10-12T03:08:25.004Z,10.81
2018-10-12T03:11:29.315Z,10.76
2018-10-12T03:14:33.634Z,10.70
2018-10-12T03:17:37.985Z,10.65
2018-10-12T03:20:42.315Z,10.60
2018-10-12T03:23:46.598Z,10.59
2018-10-12T03:26:50.969Z,10.57
2018-10-12T03:29:55.237Z,10.52
2018-10-12T03:32:59.778Z,10.53
2018-10-12T03:36:04.832Z,10.48
2018-10-12T03:39:09.513Z,10.46
2018-10-12T03:42:14.033Z,10.49
2018-10-12T03:45:18.335Z,10.53
2018-10-12T03:48:22.833Z,10.54
2018-10-12T03:51:27.093Z,10.51
2018-10-12T03:54:31.461Z,10.48
2018-10-12T03:57:35.809Z,10.50
2018-10-12T04:00:40.104Z,10.55
2018-10-12T04:03:44.430Z,10.61
2018-10-12T04:06:48.754Z,10.64
2018-10-12T04:09:53.041Z,10.69
2018-10-12T04:12:57.303Z,10.70
2018-10-12T04:16:01.662Z,10.66
2018-10-12T04:19:06.016Z,10.64
2018-10-12T04:22:10.319Z,10.63
2018-10-12T04:25:14.668Z,10.62
2018-10-12T04:28:18.991Z,10.62
2018-10-12T04:31:23.326Z,10.60
2018-10-12T04:34:27.642Z,10.54
2018-10-12T04:37:31.988Z,10.43
2018-10-12T04:41:25.961Z,10.34
2018-10-12T04:44:30.246Z,10.27
2018-10-12T04:47:34.702Z,10.23
2018-10-12T04:50:38.985Z,10.22
2018-10-12T04:53:43.413Z,10.27
2018-10-12T04:56:48.346Z,10.24
2018-10-12T04:59:52.691Z,10.15
2018-10-12T05:02:57.030Z,10.06
2018-10-12T05:06:01.963Z,10.03
2018-10-12T05:09:08.892Z,9.98
2018-10-12T05:12:13.244Z,9.98
2018-10-12T05:15:17.534Z,9.98
2018-10-12T05:18:23.063Z,9.98
2018-10-12T05:21:27.333Z,9.95
2018-10-12T05:24:31.655Z,9.90
2018-10-12T05:27:35.956Z,9.85
2018-10-12T05:30:40.278Z,9.84
2018-10-12T05:33:44.583Z,9.88
2018-10-12T05:36:48.845Z,9.89
2018-10-12T05:39:53.172Z,9.91
2018-10-12T05:42:57.582Z,9.91
2018-10-12T05:46:01.869Z,9.90
2018-10-12T05:49:23.390Z,9.95
2018-10-12T05:52:28.029Z,9.95
2018-10-12T05:55:32.370Z,10.01
2018-10-12T05:58:37.149Z,10.06
2018-10-12T06:01:41.686Z,10.11
2018-10-12T06:04:46.655Z,10.16
2018-10-12T06:07:51.062Z,10.23
2018-10-12T06:10:55.503Z,10.34
2018-10-12T06:13:59.879Z,10.44
2018-10-12T06:17:04.358Z,10.56
2018-10-12T06:20:08.737Z,10.72
2018-10-12T06:23:13.054Z,10.92
2018-10-12T06:26:17.370Z,11.05
2018-10-12T06:29:21.807Z,11.17
2018-10-12T06:32:26.219Z,11.28
2018-10-12T06:35:30.684Z,11.37
2018-10-12T06:38:35.382Z,11.50
2018-10-12T06:41:39.785Z,11.58
2018-10-12T06:44:44.119Z,11.73
2018-10-12T06:47:48.403Z,11.87
2018-10-12T06:50:52.777Z,12.00
2018-10-12T06:53:57.111Z,12.15
2018-10-12T06:57:01.410Z,12.24
2018-10-12T07:00:06.687Z,12.33
2018-10-12T07:03:10.967Z,12.37
2018-10-12T07:06:15.302Z,12.45
2018-10-12T07:09:19.616Z,12.55
2018-10-12T07:12:24.019Z,12.68
2018-10-12T07:15:28.339Z,12.90
2018-10-12T07:18:32.683Z,13.05
2018-10-12T07:21:36.979Z,13.25
2018-10-12T07:24:41.312Z,13.44
2018-10-12T07:27:45.725Z,13.64
2018-10-12T07:30:50.051Z,13.83
2018-10-12T07:33:54.331Z,14.00
2018-10-12T07:36:58.729Z,14.11
2018-10-12T07:40:03.059Z,14.26
2018-10-12T07:43:07.422Z,14.42
2018-10-12T07:46:11.761Z,14.54
2018-10-12T07:49:16.082Z,14.69
2018-10-12T07:52:20.438Z,14.83
2018-10-12T07:55:24.778Z,15.02
2018-10-12T07:58:29.077Z,15.14
2018-10-12T08:01:33.363Z,15.30
2018-10-12T08:04:37.980Z,15.44
2018-10-12T08:07:42.323Z,15.59
2018-10-12T08:10:46.652Z,15.74
2018-10-12T08:13:51.121Z,15.84
2018-10-12T08:16:55.298Z,15.95
2018-10-12T08:19:59.829Z,16.08
2018-10-12T08:23:04.116Z,16.18
2018-10-12T08:26:09.421Z,16.30
2018-10-12T08:29:13.927Z,16.41
2018-10-12T08:32:18.194Z,16.46
2018-10-12T08:35:22.569Z,16.54
2018-10-12T08:38:26.908Z,16.65
2018-10-12T08:41:31.985Z,16.68
2018-10-12T08:44:36.333Z,16.78
2018-10-12T08:47:40.655Z,16.85
2018-10-12T08:50:44.995Z,16.91
2018-10-12T08:53:49.300Z,16.99
2018-10-12T08:56:53.563Z,17.13
2018-10-12T08:59:57.843Z,17.20
2018-10-12T09:03:02.142Z,17.25
2018-10-12T09:06:06.524Z,17.34
2018-10-12T09:09:11.586Z,17.43
2018-10-12T09:12:15.950Z,17.47
2018-10-12T09:15:20.242Z,17.53
2018-10-12T09:18:25.475Z,17.63
2018-10-12T09:21:30.154Z,17.69
2018-10-12T09:24:34.477Z,17.72
2018-10-12T09:27:38.795Z,17.80
2018-10-12T09:30:43.172Z,17.85
2018-10-12T09:33:47.522Z,17.87
2018-10-12T09:36:51.972Z,17.94
2018-10-12T09:39:56.538Z,18.03
2018-10-12T09:43:00.904Z,18.03
2018-10-12T09:46:05.266Z,18.10
2018-10-12T09:49:09.745Z,18.14
2018-10-12T09:52:15.202Z,18.18
2018-10-12T09:55:19.507Z,18.22
2018-10-12T09:58:23.757Z,18.32
2018-10-12T10:01:34.502Z,18.46
2018-10-12T10:04:38.893Z,18.58
2018-10-12T10:07:43.441Z,18.70
2018-10-12T10:10:47.713Z,18.76
2018-10-12T10:13:52.654Z,18.75
2018-10-12T10:16:56.933Z,18.74
2018-10-12T10:20:01.275Z,18.82
2018-10-12T10:23:05.697Z,18.99
2018-10-12T10:26:10.059Z,19.03
2018-10-12T10:29:14.658Z,19.10
2018-10-12T10:32:19.013Z,19.15
2018-10-12T10:35:23.305Z,19.26
2018-10-12T10:38:27.697Z,19.35
2018-10-12T10:41:32.144Z,19.42
2018-10-12T10:44:36.575Z,19.56
2018-10-12T10:47:40.960Z,19.61
2018-10-12T10:50:45.373Z,19.61
2018-10-12T10:53:49.625Z,19.65
2018-10-12T10:56:58.099Z,19.74
2018-10-12T11:00:02.393Z,19.79
2018-10-12T11:03:06.968Z,19.91
2018-10-12T11:06:11.478Z,20.03
2018-10-12T11:09:16.738Z,20.11
2018-10-12T11:12:21.080Z,20.27
2018-10-12T11:15:25.346Z,20.38
2018-10-12T11:18:29.706Z,20.29
2018-10-12T11:21:34.143Z,20.33
2018-10-12T11:24:38.543Z,20.40
2018-10-12T11:27:43.126Z,20.42
2018-10-12T11:30:47.431Z,20.44
2018-10-12T11:33:51.843Z,20.47
2018-10-12T11:36:56.238Z,20.56
2018-10-12T11:40:00.563Z,20.56
2018-10-12T11:43:24.980Z,20.56
2018-10-12T11:46:29.288Z,20.51
2018-10-12T11:49:33.576Z,20.50
2018-10-12T11:52:37.885Z,20.50
2018-10-12T11:55:42.208Z,20.54
2018-10-12T11:58:46.568Z,20.49
2018-10-12T12:01:50.913Z,20.68
2018-10-12T12:04:55.291Z,20.88
2018-10-12T12:07:59.610Z,21.01
2018-10-12T12:11:03.960Z,20.91
2018-10-12T12:14:08.402Z,20.94
2018-10-12T12:17:12.786Z,20.85
2018-10-12T12:20:17.128Z,20.89
2018-10-12T12:23:21.426Z,20.78
2018-10-12T12:26:25.709Z,20.71
2018-10-12T12:29:30.166Z,20.71
2018-10-12T12:32:34.425Z,20.79
2018-10-12T12:35:39.062Z,20.82
2018-10-12T12:38:43.909Z,20.89
2018-10-12T12:41:48.292Z,21.04
2018-10-12T12:44:52.616Z,21.11
2018-10-12T12:47:57.157Z,21.25
2018-10-12T12:51:01.445Z,21.30
2018-10-12T12:54:05.777Z,21.36
2018-10-12T12:57:10.257Z,21.40
2018-10-12T13:00:14.669Z,21.39
2018-10-12T13:03:18.867Z,21.43
2018-10-12T13:06:23.204Z,21.43
2018-10-12T13:09:27.510Z,21.35
2018-10-12T13:12:31.806Z,21.41
2018-10-12T13:15:36.060Z,21.42
2018-10-12T13:18:40.317Z,21.40
2018-10-12T13:21:44.659Z,21.37
2018-10-12T13:24:48.990Z,21.43
2018-10-12T13:27:53.218Z,21.38
2018-10-12T13:30:57.636Z,21.39
2018-10-12T13:34:01.940Z,21.42
2018-10-12T13:37:06.285Z,21.50
2018-10-12T13:40:10.549Z,21.52
2018-10-12T13:43:14.920Z,21.54
2018-10-12T13:46:19.196Z,21.55
2018-10-12T13:49:23.502Z,21.57
2018-10-12T13:52:27.793Z,21.53
2018-10-12T13:55:32.111Z,21.52
2018-10-12T13:58:36.422Z,21.45
2018-10-12T14:01:40.713Z,21.44
2018-10-12T14:04:44.992Z,21.39
2018-10-12T14:07:49.417Z,21.35
2018-10-12T14:10:53.902Z,21.37
2018-10-12T14:13:58.184Z,21.33
2018-10-12T14:17:02.536Z,21.30
2018-10-12T14:20:06.824Z,21.25
2018-10-12T14:23:11.117Z,21.24
2018-10-12T14:26:15.521Z,21.25
2018-10-12T14:29:20.105Z,21.26
2018-10-12T14:32:24.430Z,21.27
2018-10-12T14:35:28.748Z,21.31
2018-10-12T14:38:33.077Z,21.32
2018-10-12T14:41:37.789Z,21.32
2018-10-12T14:44:42.144Z,21.35
2018-10-12T14:47:46.388Z,21.33
2018-10-12T14:50:50.853Z,21.28
2018-10-12T14:53:55.152Z,21.25
2018-10-12T14:56:59.534Z,21.20
2018-10-12T15:00:04.127Z,21.16
2018-10-12T15:03:08.409Z,21.12
2018-10-12T15:06:12.926Z,21.03
2018-10-12T15:09:17.222Z,21.00
2018-10-12T15:12:21.521Z,20.97
2018-10-12T15:15:28.179Z,20.95
2018-10-12T15:18:32.539Z,20.92
2018-10-12T15:21:36.808Z,20.88
2018-10-12T15:24:41.134Z,20.85
2018-10-12T15:27:45.532Z,20.79
2018-10-12T15:30:49.807Z,20.68
2018-10-12T15:33:54.101Z,20.58
2018-10-12T15:36:58.469Z,20.41
2018-10-12T15:40:03.025Z,20.26
2018-10-12T15:43:07.479Z,20.11
2018-10-12T15:46:11.748Z,19.98
2018-10-12T15:49:16.089Z,19.82
2018-10-12T15:52:20.488Z,19.63
2018-10-12T15:55:24.799Z,19.45
2018-10-12T15:58:29.138Z,19.28
2018-10-12T16:01:33.544Z,19.15
2018-10-12T16:04:37.982Z,19.04
2018-10-12T16:07:42.335Z,18.97
2018-10-12T16:10:46.785Z,18.88
2018-10-12T16:13:51.076Z,18.79
2018-10-12T16:16:55.408Z,18.71
2018-10-12T16:19:59.780Z,18.59
2018-10-12T16:23:04.107Z,18.45
2018-10-12T16:26:19.125Z,18.33
2018-10-12T16:29:23.410Z,18.23
2018-10-12T16:32:27.776Z,18.13
2018-10-12T16:35:32.144Z,18.03
2018-10-12T16:38:36.492Z,17.98
2018-10-12T16:41:41.130Z,17.94
2018-10-12T16:44:45.531Z,17.89
2018-10-12T16:47:49.925Z,17.81
2018-10-12T16:50:54.338Z,17.75
2018-10-12T16:53:58.635Z,17.71
2018-10-12T16:57:02.978Z,17.69
2018-10-12T17:00:07.550Z,17.68
2018-10-12T17:03:12.094Z,17.64
2018-10-12T17:06:16.474Z,17.63
2018-10-12T17:09:20.790Z,17.55
2018-10-12T17:12:25.132Z,17.50
2018-10-12T17:15:29.528Z,17.42
2018-10-12T17:18:33.895Z,17.38
2018-10-12T17:21:38.232Z,17.32
2018-10-12T17:24:42.518Z,17.31
2018-10-12T17:27:46.988Z,17.31
2018-10-12T17:30:51.360Z,17.26
2018-10-12T17:33:55.668Z,17.27
2018-10-12T17:37:00.103Z,17.22
2018-10-12T17:40:04.440Z,17.15
2018-10-12T17:43:08.912Z,17.12
2018-10-12T17:46:13.298Z,17.13
2018-10-12T17:49:17.746Z,17.10
2018-10-12T17:52:21.997Z,17.13
2018-10-12T17:55:26.337Z,17.09
2018-10-12T17:58:30.900Z,17.11
2018-10-12T18:01:35.287Z,17.08
2018-10-12T18:04:39.708Z,17.15
2018-10-12T18:07:44.038Z,17.18
2018-10-12T18:10:48.438Z,17.19
2018-10-12T18:13:52.819Z,17.19
2018-10-12T18:16:57.111Z,17.19
2018-10-12T18:20:01.500Z,17.26
2018-10-12T18:23:05.812Z,17.24
2018-10-12T18:26:10.173Z,17.27
2018-10-12T18:29:14.840Z,17.31
2018-10-12T18:32:19.163Z,17.28
2018-10-12T18:35:23.571Z,17.28
2018-10-12T18:38:28.041Z,17.28
2018-10-12T18:41:32.386Z,17.36
2018-10-12T18:44:36.709Z,17.34
2018-10-12T18:47:41.170Z,17.33
2018-10-12T18:50:45.604Z,17.37
2018-10-12T18:53:49.904Z,17.38
2018-10-12T18:56:54.268Z,17.41
2018-10-12T18:59:58.676Z,17.41
2018-10-12T19:03:03.054Z,17.43
2018-10-12T19:06:07.544Z,17.41
2018-10-12T19:09:11.952Z,17.41
2018-10-12T19:12:16.311Z,17.40
2018-10-12T19:15:20.614Z,17.33
2018-10-12T19:18:25.048Z,17.26
2018-10-12T19:21:29.628Z,17.21
2018-10-12T19:24:34.126Z,17.19
2018-10-12T19:27:39.145Z,17.21
2018-10-12T19:30:43.568Z,17.16
2018-10-12T19:33:48.025Z,17.17
2018-10-12T19:36:52.431Z,17.11
2018-10-12T19:39:56.855Z,17.06
2018-10-12T19:43:01.266Z,17.04
2018-10-12T19:46:05.716Z,16.98
2018-10-12T19:49:10.105Z,16.96
2018-10-12T19:52:15.374Z,16.97
2018-10-12T19:55:19.701Z,16.97
2018-10-12T19:58:24.029Z,17.05
2018-10-12T20:01:28.432Z,17.05
2018-10-12T20:04:32.855Z,17.00
2018-10-12T20:07:37.260Z,17.03
2018-10-12T20:10:41.604Z,17.07
2018-10-12T20:13:45.943Z,17.08
2018-10-12T20:16:50.327Z,17.07
2018-10-12T20:19:54.644Z,17.03
2018-10-12T20:22:59.049Z,17.05
2018-10-12T20:26:03.351Z,17.09
2018-10-12T20:29:07.858Z,17.11
2018-10-12T20:32:12.214Z,17.19
2018-10-12T20:35:17.421Z,17.21
2018-10-12T20:38:21.785Z,17.25
2018-10-12T20:41:26.094Z,17.24
2018-10-12T20:44:30.465Z,17.20
2018-10-12T20:47:34.841Z,17.17
2018-10-12T20:50:39.220Z,17.14
2018-10-12T20:53:43.481Z,17.14
2018-10-12T20:56:47.830Z,17.15
2018-10-12T20:59:52.260Z,17.19
2018-10-12T21:02:56.574Z,17.21
2018-10-12T21:06:00.863Z,17.15
2018-10-12T21:09:08.620Z,17.11
2018-10-12T21:12:13.025Z,17.09
2018-10-12T21:15:17.313Z,17.20
2018-10-12T21:18:22.352Z,17.16
2018-10-12T21:21:26.670Z,17.16
2018-10-12T21:24:30.987Z,17.12
2018-10-12T21:27:35.349Z,17.13
2018-10-12T21:30:39.754Z,17.22
2018-10-12T21:33:44.433Z,17.26
2018-10-12T21:36:48.834Z,17.20
2018-10-12T21:39:53.224Z,17.21
2018-10-12T21:42:58.546Z,17.29
2018-10-12T21:46:02.861Z,17.30
2018-10-12T21:49:07.311Z,17.37
2018-10-12T21:52:11.623Z,17.41
2018-10-12T21:55:15.954Z,17.44
2018-10-12T21:58:20.223Z,17.44
2018-10-12T22:01:24.507Z,17.48
2018-10-12T22:04:28.819Z,17.46
2018-10-12T22:07:33.156Z,17.46
2018-10-12T22:10:37.465Z,17.41
2018-10-12T22:13:41.809Z,17.39
2018-10-12T22:16:46.193Z,17.42
2018-10-12T22:19:50.552Z,17.42
2018-10-12T22:22:54.835Z,17.43
2018-10-12T22:25:59.300Z,17.37
2018-10-12T22:29:03.448Z,17.28
2018-10-12T22:32:07.820Z,17.20
2018-10-12T22:35:12.147Z,17.22
2018-10-12T22:38:16.391Z,17.19
2018-10-12T22:41:20.746Z,17.13
2018-10-12T22:44:25.068Z,17.09
2018-10-12T22:47:29.409Z,17.07
2018-10-12T22:50:33.732Z,17.08
2018-10-12T22:53:38.066Z,17.03
2018-10-12T22:56:42.388Z,16.99
2018-10-12T22:59:46.677Z,16.93
2018-10-12T23:02:50.989Z,16.93
2018-10-12T23:05:55.338Z,16.80
2018-10-12T23:08:59.648Z,16.70
2018-10-12T23:12:03.995Z,16.61
2018-10-12T23:15:08.305Z,16.58
2018-10-12T23:18:12.705Z,16.51
2018-10-12T23:21:17.193Z,16.49
2018-10-12T23:24:21.586Z,16.47
2018-10-12T23:27:25.899Z,16.42
2018-10-12T23:30:30.167Z,16.40
2018-10-12T23:33:51.506Z,16.39
2018-10-12T23:36:55.768Z,16.37
2018-10-12T23:40:00.157Z,16.30
2018-10-12T23:43:04.419Z,16.29
2018-10-12T23:46:08.736Z,16.21
2018-10-12T23:49:13.146Z,16.19
2018-10-12T23:52:17.448Z,16.20
2018-10-12T23:55:21.768Z,16.25
2018-10-12T23:58:26.061Z,16.38
